Terminal Aerodrome Forecast
Issued by NWS

Home | Current Version | Previous Version | Text Only | Print | Product List | Glossary Off
Versions: 1 2 3 4 5 6 7 8 9 10 11 12 13 14 15 16 17 18 19 20 21 22 23 24 25 26 27 28 29 30

752
FTUS43 KABR 262046 AAA
TAFATY
TAF AMD
KATY 262046Z 2621/2718 07013G21KT P6SM OVC015
      TEMPO 2621/2623 5SM BR OVC004
     FM270000 07017KT P6SM VCSH OVC020
     FM270500 08017G25KT P6SM -SHRA OVC015
     FM271300 08021G29KT P6SM RA OVC025=

USA.gov is the U.S. government's official web portal to all federal, state and local government web resources and services.